Terminal Aerodrome Forecast
Issued by NWS Portland, ME

Home | Current Version | Previous Version | Text Only | Print | Product List | Glossary On
Versions: 1 2 3 4 5 6 7 8 9 10 11 12 13 14 15 16 17 18 19 20 21 22 23 24 25 26 27 28 29 30 31 32 33 34
000
FTUS41 KGYX 311300 AAB
TAFPWM
TAF AMD
KPWM 311331Z 3114/0112 10004KT 4SM BR OVC003
     FM311400 12004KT 3SM BR BKN005
     FM311430 18007KT P6SM SCT050
     FM312000 17010KT P6SM VCTS SCT035CB BKN100
     FM312300 19008KT P6SM SCT050 BKN250
     FM010500 21005KT 3SM BR FEW002 SCT250=

USA.gov is the U.S. government's official web portal to all federal, state and local government web resources and services.